sensor_id;sensor_type;location;lat;lon;timestamp;P1;durP1;ratioP1;P2;durP2;ratioP2
73678;SDS011;61978;52.742;16.962;2023-02-24T00:00:08;90.40;;;43.40;;
73678;SDS011;61978;52.742;16.962;2023-02-24T00:03:04;90.00;;;43.40;;
73678;SDS011;61978;52.742;16.962;2023-02-24T00:05:36;91.20;;;43.50;;
73678;SDS011;61978;52.742;16.962;2023-02-24T00:08:05;81.40;;;42.20;;
73678;SDS011;61978;52.742;16.962;2023-02-24T00:10:32;89.10;;;41.90;;
73678;SDS011;61978;52.742;16.962;2023-02-24T00:13:02;74.50;;;39.20;;
73678;SDS011;61978;52.742;16.962;2023-02-24T00:15:28;78.70;;;38.70;;
73678;SDS011;61978;52.742;16.962;2023-02-24T00:17:54;81.50;;;41.70;;
73678;SDS011;61978;52.742;16.962;2023-02-24T00:20:20;79.80;;;40.30;;
73678;SDS011;61978;52.742;16.962;2023-02-24T00:22:46;74.50;;;38.70;;
73678;SDS011;61978;52.742;16.962;2023-02-24T00:25:12;66.90;;;35.70;;
73678;SDS011;61978;52.742;16.962;2023-02-24T00:27:39;71.60;;;36.60;;
73678;SDS011;61978;52.742;16.962;2023-02-24T00:30:08;56.50;;;30.20;;
73678;SDS011;61978;52.742;16.962;2023-02-24T00:32:36;66.70;;;36.10;;
73678;SDS011;61978;52.742;16.962;2023-02-24T00:35:03;71.30;;;34.00;;
73678;SDS011;61978;52.742;16.962;2023-02-24T00:37:30;67.90;;;34.10;;
73678;SDS011;61978;52.742;16.962;2023-02-24T00:39:59;61.50;;;31.70;;
73678;SDS011;61978;52.742;16.962;2023-02-24T00:42:26;62.40;;;33.10;;
73678;SDS011;61978;52.742;16.962;2023-02-24T00:44:52;61.60;;;32.10;;
73678;SDS011;61978;52.742;16.962;2023-02-24T00:47:19;59.70;;;32.40;;
73678;SDS011;61978;52.742;16.962;2023-02-24T00:49:47;57.40;;;30.00;;
73678;SDS011;61978;52.742;16.962;2023-02-24T00:52:18;57.40;;;31.30;;
73678;SDS011;61978;52.742;16.962;2023-02-24T00:54:46;65.20;;;31.70;;
73678;SDS011;61978;52.742;16.962;2023-02-24T00:57:14;57.50;;;30.40;;
73678;SDS011;61978;52.742;16.962;2023-02-24T00:59:43;58.10;;;29.10;;
73678;SDS011;61978;52.742;16.962;2023-02-24T01:02:13;58.50;;;29.80;;
73678;SDS011;61978;52.742;16.962;2023-02-24T01:04:39;55.50;;;28.30;;
73678;SDS011;61978;52.742;16.962;2023-02-24T01:07:09;56.30;;;30.70;;
73678;SDS011;61978;52.742;16.962;2023-02-24T01:09:36;61.00;;;31.80;;
73678;SDS011;61978;52.742;16.962;2023-02-24T01:12:05;51.50;;;27.00;;
73678;SDS011;61978;52.742;16.962;2023-02-24T01:14:52;53.10;;;28.40;;
73678;SDS011;61978;52.742;16.962;2023-02-24T01:17:19;53.70;;;27.90;;
73678;SDS011;61978;52.742;16.962;2023-02-24T01:19:47;53.60;;;30.60;;
73678;SDS011;61978;52.742;16.962;2023-02-24T01:22:15;52.80;;;28.80;;
73678;SDS011;61978;52.742;16.962;2023-02-24T01:24:42;49.20;;;26.60;;
73678;SDS011;61978;52.742;16.962;2023-02-24T01:27:09;49.30;;;26.70;;
73678;SDS011;61978;52.742;16.962;2023-02-24T01:29:37;53.70;;;28.80;;
73678;SDS011;61978;52.742;16.962;2023-02-24T01:32:08;51.50;;;25.60;;
73678;SDS011;61978;52.742;16.962;2023-02-24T01:34:39;50.50;;;27.50;;
73678;SDS011;61978;52.742;16.962;2023-02-24T01:37:07;54.50;;;29.50;;
73678;SDS011;61978;52.742;16.962;2023-02-24T01:39:33;49.00;;;27.40;;
73678;SDS011;61978;52.742;16.962;2023-02-24T01:42:02;46.70;;;25.70;;
73678;SDS011;61978;52.742;16.962;2023-02-24T01:46:58;47.30;;;25.10;;
73678;SDS011;61978;52.742;16.962;2023-02-24T01:49:32;47.00;;;25.90;;
73678;SDS011;61978;52.742;16.962;2023-02-24T01:52:05;47.90;;;25.40;;
73678;SDS011;61978;52.742;16.962;2023-02-24T01:54:36;45.10;;;24.70;;
73678;SDS011;61978;52.742;16.962;2023-02-24T01:57:09;48.10;;;23.20;;
73678;SDS011;61978;52.742;16.962;2023-02-24T01:59:35;48.00;;;26.00;;
73678;SDS011;61978;52.742;16.962;2023-02-24T02:02:03;48.50;;;25.40;;
73678;SDS011;61978;52.742;16.962;2023-02-24T02:04:53;40.70;;;23.70;;
73678;SDS011;61978;52.742;16.962;2023-02-24T02:07:24;44.20;;;23.70;;
73678;SDS011;61978;52.742;16.962;2023-02-24T02:09:54;44.10;;;23.20;;
73678;SDS011;61978;52.742;16.962;2023-02-24T02:12:24;42.60;;;22.10;;
73678;SDS011;61978;52.742;16.962;2023-02-24T02:14:50;45.60;;;23.90;;
73678;SDS011;61978;52.742;16.962;2023-02-24T02:25:11;44.10;;;22.10;;
73678;SDS011;61978;52.742;16.962;2023-02-24T02:30:44;40.50;;;22.90;;
73678;SDS011;61978;52.742;16.962;2023-02-24T02:33:40;43.40;;;21.60;;
73678;SDS011;61978;52.742;16.962;2023-02-24T02:38:48;50.30;;;24.10;;
73678;SDS011;61978;52.742;16.962;2023-02-24T02:46:43;49.40;;;22.00;;
73678;SDS011;61978;52.742;16.962;2023-02-24T02:49:13;53.70;;;23.90;;
73678;SDS011;61978;52.742;16.962;2023-02-24T02:51:48;41.70;;;19.30;;
73678;SDS011;61978;52.742;16.962;2023-02-24T02:56:50;54.90;;;24.60;;
73678;SDS011;61978;52.742;16.962;2023-02-24T02:59:18;57.40;;;25.00;;
73678;SDS011;61978;52.742;16.962;2023-02-24T03:01:50;55.90;;;20.90;;
73678;SDS011;61978;52.742;16.962;2023-02-24T03:04:20;68.80;;;27.70;;
73678;SDS011;61978;52.742;16.962;2023-02-24T03:07:22;67.30;;;27.10;;
73678;SDS011;61978;52.742;16.962;2023-02-24T03:09:43;54.00;;;24.30;;
73678;SDS011;61978;52.742;16.962;2023-02-24T03:12:13;60.50;;;25.20;;
73678;SDS011;61978;52.742;16.962;2023-02-24T03:14:41;63.60;;;26.00;;
73678;SDS011;61978;52.742;16.962;2023-02-24T03:17:11;62.70;;;24.80;;
73678;SDS011;61978;52.742;16.962;2023-02-24T03:19:39;58.50;;;24.40;;
73678;SDS011;61978;52.742;16.962;2023-02-24T03:22:16;69.20;;;26.60;;
73678;SDS011;61978;52.742;16.962;2023-02-24T03:24:46;66.30;;;27.20;;
73678;SDS011;61978;52.742;16.962;2023-02-24T03:27:22;67.30;;;26.50;;
73678;SDS011;61978;52.742;16.962;2023-02-24T03:29:52;67.40;;;27.90;;
73678;SDS011;61978;52.742;16.962;2023-02-24T03:32:27;61.20;;;26.40;;
73678;SDS011;61978;52.742;16.962;2023-02-24T03:35:06;70.60;;;26.20;;
73678;SDS011;61978;52.742;16.962;2023-02-24T03:37:37;66.40;;;27.70;;
73678;SDS011;61978;52.742;16.962;2023-02-24T03:40:07;61.90;;;25.00;;
73678;SDS011;61978;52.742;16.962;2023-02-24T03:45:06;70.30;;;26.20;;
73678;SDS011;61978;52.742;16.962;2023-02-24T03:47:34;66.80;;;25.90;;
73678;SDS011;61978;52.742;16.962;2023-02-24T03:50:05;60.90;;;26.50;;
73678;SDS011;61978;52.742;16.962;2023-02-24T03:52:43;63.60;;;27.10;;
73678;SDS011;61978;52.742;16.962;2023-02-24T03:55:20;60.80;;;25.00;;
73678;SDS011;61978;52.742;16.962;2023-02-24T04:03:34;56.50;;;24.60;;
73678;SDS011;61978;52.742;16.962;2023-02-24T04:07:14;64.60;;;27.00;;
73678;SDS011;61978;52.742;16.962;2023-02-24T04:09:14;61.40;;;24.50;;
73678;SDS011;61978;52.742;16.962;2023-02-24T04:11:55;59.90;;;25.70;;
73678;SDS011;61978;52.742;16.962;2023-02-24T04:14:27;55.20;;;25.60;;
73678;SDS011;61978;52.742;16.962;2023-02-24T04:17:29;55.80;;;24.20;;
73678;SDS011;61978;52.742;16.962;2023-02-24T04:19:49;58.50;;;25.10;;
73678;SDS011;61978;52.742;16.962;2023-02-24T04:22:18;61.00;;;25.10;;
73678;SDS011;61978;52.742;16.962;2023-02-24T04:24:47;55.60;;;23.20;;
73678;SDS011;61978;52.742;16.962;2023-02-24T04:27:14;46.70;;;17.10;;
73678;SDS011;61978;52.742;16.962;2023-02-24T04:29:42;35.80;;;15.20;;
73678;SDS011;61978;52.742;16.962;2023-02-24T04:32:13;34.90;;;15.10;;
73678;SDS011;61978;52.742;16.962;2023-02-24T04:34:40;37.10;;;14.40;;
73678;SDS011;61978;52.742;16.962;2023-02-24T04:37:06;36.00;;;15.10;;
73678;SDS011;61978;52.742;16.962;2023-02-24T04:39:34;33.90;;;18.90;;
73678;SDS011;61978;52.742;16.962;2023-02-24T04:42:07;47.40;;;20.50;;
73678;SDS011;61978;52.742;16.962;2023-02-24T04:44:35;37.60;;;15.90;;
73678;SDS011;61978;52.742;16.962;2023-02-24T04:47:02;35.60;;;15.40;;
73678;SDS011;61978;52.742;16.962;2023-02-24T04:49:29;27.10;;;14.60;;
73678;SDS011;61978;52.742;16.962;2023-02-24T04:51:55;31.30;;;14.90;;
73678;SDS011;61978;52.742;16.962;2023-02-24T04:54:22;25.60;;;13.70;;
73678;SDS011;61978;52.742;16.962;2023-02-24T04:56:49;29.50;;;14.60;;
73678;SDS011;61978;52.742;16.962;2023-02-24T04:59:17;26.30;;;14.70;;
73678;SDS011;61978;52.742;16.962;2023-02-24T05:01:44;42.30;;;20.30;;
73678;SDS011;61978;52.742;16.962;2023-02-24T05:04:11;53.10;;;23.10;;
73678;SDS011;61978;52.742;16.962;2023-02-24T05:06:41;51.30;;;22.20;;
73678;SDS011;61978;52.742;16.962;2023-02-24T05:09:15;47.70;;;21.30;;
73678;SDS011;61978;52.742;16.962;2023-02-24T05:11:48;55.30;;;25.00;;
73678;SDS011;61978;52.742;16.962;2023-02-24T05:14:15;58.90;;;25.10;;
73678;SDS011;61978;52.742;16.962;2023-02-24T05:16:43;55.80;;;24.50;;
73678;SDS011;61978;52.742;16.962;2023-02-24T05:19:10;50.90;;;22.50;;
73678;SDS011;61978;52.742;16.962;2023-02-24T05:21:54;60.70;;;24.40;;
73678;SDS011;61978;52.742;16.962;2023-02-24T05:24:23;52.50;;;22.50;;
73678;SDS011;61978;52.742;16.962;2023-02-24T05:26:49;56.10;;;23.80;;
73678;SDS011;61978;52.742;16.962;2023-02-24T05:29:30;63.00;;;25.80;;
73678;SDS011;61978;52.742;16.962;2023-02-24T05:31:57;60.50;;;21.30;;
73678;SDS011;61978;52.742;16.962;2023-02-24T05:34:28;56.80;;;22.40;;
73678;SDS011;61978;52.742;16.962;2023-02-24T05:36:55;63.10;;;23.20;;
73678;SDS011;61978;52.742;16.962;2023-02-24T05:39:21;62.80;;;24.00;;
73678;SDS011;61978;52.742;16.962;2023-02-24T05:41:49;56.40;;;22.40;;
73678;SDS011;61978;52.742;16.962;2023-02-24T05:44:19;24.60;;;10.10;;
73678;SDS011;61978;52.742;16.962;2023-02-24T05:46:51;26.30;;;10.20;;
73678;SDS011;61978;52.742;16.962;2023-02-24T05:49:22;19.00;;;10.10;;
73678;SDS011;61978;52.742;16.962;2023-02-24T05:51:55;14.60;;;7.30;;
73678;SDS011;61978;52.742;16.962;2023-02-24T05:54:25;13.90;;;6.50;;
73678;SDS011;61978;52.742;16.962;2023-02-24T05:56:58;10.80;;;4.60;;
73678;SDS011;61978;52.742;16.962;2023-02-24T05:59:26;10.70;;;4.50;;
73678;SDS011;61978;52.742;16.962;2023-02-24T06:01:58;14.80;;;6.70;;
73678;SDS011;61978;52.742;16.962;2023-02-24T06:04:26;14.40;;;6.50;;
73678;SDS011;61978;52.742;16.962;2023-02-24T06:07:05;9.80;;;5.10;;
73678;SDS011;61978;52.742;16.962;2023-02-24T06:09:32;10.60;;;4.60;;
73678;SDS011;61978;52.742;16.962;2023-02-24T06:11:59;8.20;;;4.30;;
73678;SDS011;61978;52.742;16.962;2023-02-24T06:14:25;7.80;;;4.20;;
73678;SDS011;61978;52.742;16.962;2023-02-24T06:16:52;7.50;;;4.60;;
73678;SDS011;61978;52.742;16.962;2023-02-24T06:19:18;8.80;;;4.60;;
73678;SDS011;61978;52.742;16.962;2023-02-24T06:21:45;11.60;;;3.80;;
73678;SDS011;61978;52.742;16.962;2023-02-24T06:24:12;7.90;;;3.30;;
73678;SDS011;61978;52.742;16.962;2023-02-24T06:26:39;6.90;;;3.20;;
73678;SDS011;61978;52.742;16.962;2023-02-24T06:29:15;9.00;;;3.50;;
73678;SDS011;61978;52.742;16.962;2023-02-24T06:31:42;11.20;;;3.90;;
73678;SDS011;61978;52.742;16.962;2023-02-24T06:34:08;12.90;;;4.00;;
73678;SDS011;61978;52.742;16.962;2023-02-24T06:36:36;11.30;;;4.40;;
73678;SDS011;61978;52.742;16.962;2023-02-24T06:39:03;10.60;;;3.90;;
73678;SDS011;61978;52.742;16.962;2023-02-24T06:41:34;11.80;;;4.20;;
73678;SDS011;61978;52.742;16.962;2023-02-24T06:44:02;15.00;;;4.10;;
73678;SDS011;61978;52.742;16.962;2023-02-24T06:46:29;8.80;;;3.70;;
73678;SDS011;61978;52.742;16.962;2023-02-24T06:48:55;10.40;;;3.80;;
73678;SDS011;61978;52.742;16.962;2023-02-24T06:51:25;7.80;;;2.80;;
73678;SDS011;61978;52.742;16.962;2023-02-24T06:53:55;10.90;;;4.60;;
73678;SDS011;61978;52.742;16.962;2023-02-24T06:56:22;9.60;;;2.90;;
73678;SDS011;61978;52.742;16.962;2023-02-24T06:58:50;11.10;;;3.80;;
73678;SDS011;61978;52.742;16.962;2023-02-24T07:01:18;12.20;;;4.20;;
73678;SDS011;61978;52.742;16.962;2023-02-24T07:03:51;17.70;;;4.70;;
73678;SDS011;61978;52.742;16.962;2023-02-24T07:06:34;12.20;;;4.30;;
73678;SDS011;61978;52.742;16.962;2023-02-24T07:09:04;17.20;;;5.10;;
73678;SDS011;61978;52.742;16.962;2023-02-24T07:11:32;11.60;;;3.70;;
73678;SDS011;61978;52.742;16.962;2023-02-24T07:14:01;25.40;;;5.40;;
73678;SDS011;61978;52.742;16.962;2023-02-24T07:16:31;14.20;;;3.90;;
73678;SDS011;61978;52.742;16.962;2023-02-24T07:19:00;14.40;;;3.80;;
73678;SDS011;61978;52.742;16.962;2023-02-24T07:21:28;14.70;;;4.70;;
73678;SDS011;61978;52.742;16.962;2023-02-24T07:24:04;19.50;;;4.80;;
73678;SDS011;61978;52.742;16.962;2023-02-24T07:26:30;25.10;;;4.80;;
73678;SDS011;61978;52.742;16.962;2023-02-24T07:28:58;11.10;;;3.60;;
73678;SDS011;61978;52.742;16.962;2023-02-24T07:31:29;14.80;;;3.30;;
73678;SDS011;61978;52.742;16.962;2023-02-24T07:34:01;35.00;;;16.90;;
73678;SDS011;61978;52.742;16.962;2023-02-24T07:36:28;18.70;;;4.90;;
73678;SDS011;61978;52.742;16.962;2023-02-24T07:39:04;15.50;;;4.30;;
73678;SDS011;61978;52.742;16.962;2023-02-24T07:41:32;21.40;;;5.40;;
73678;SDS011;61978;52.742;16.962;2023-02-24T07:43:58;14.60;;;3.90;;
73678;SDS011;61978;52.742;16.962;2023-02-24T07:46:27;40.20;;;20.90;;
73678;SDS011;61978;52.742;16.962;2023-02-24T07:48:54;25.70;;;12.30;;
73678;SDS011;61978;52.742;16.962;2023-02-24T07:51:21;29.70;;;12.10;;
73678;SDS011;61978;52.742;16.962;2023-02-24T07:53:48;19.60;;;5.00;;
73678;SDS011;61978;52.742;16.962;2023-02-24T07:56:15;23.50;;;9.60;;
73678;SDS011;61978;52.742;16.962;2023-02-24T07:58:43;22.30;;;7.90;;
73678;SDS011;61978;52.742;16.962;2023-02-24T08:01:10;19.40;;;5.20;;
73678;SDS011;61978;52.742;16.962;2023-02-24T08:03:54;24.20;;;6.20;;
73678;SDS011;61978;52.742;16.962;2023-02-24T08:06:21;25.60;;;8.00;;
73678;SDS011;61978;52.742;16.962;2023-02-24T08:09:06;22.40;;;5.30;;
73678;SDS011;61978;52.742;16.962;2023-02-24T08:12:03;27.30;;;5.40;;
73678;SDS011;61978;52.742;16.962;2023-02-24T08:14:29;23.30;;;6.10;;
73678;SDS011;61978;52.742;16.962;2023-02-24T08:16:59;18.50;;;3.90;;
73678;SDS011;61978;52.742;16.962;2023-02-24T08:19:26;28.40;;;6.60;;
73678;SDS011;61978;52.742;16.962;2023-02-24T08:21:57;26.50;;;5.60;;
73678;SDS011;61978;52.742;16.962;2023-02-24T08:24:32;20.60;;;6.60;;
73678;SDS011;61978;52.742;16.962;2023-02-24T08:27:01;20.70;;;5.50;;
73678;SDS011;61978;52.742;16.962;2023-02-24T08:29:34;21.90;;;5.20;;
73678;SDS011;61978;52.742;16.962;2023-02-24T08:32:19;33.50;;;6.40;;
73678;SDS011;61978;52.742;16.962;2023-02-24T08:34:48;28.90;;;7.20;;
73678;SDS011;61978;52.742;16.962;2023-02-24T08:37:15;24.70;;;6.40;;
73678;SDS011;61978;52.742;16.962;2023-02-24T08:39:41;26.80;;;6.60;;
73678;SDS011;61978;52.742;16.962;2023-02-24T08:42:08;25.70;;;6.70;;
73678;SDS011;61978;52.742;16.962;2023-02-24T08:44:39;21.40;;;6.30;;
73678;SDS011;61978;52.742;16.962;2023-02-24T08:47:05;14.40;;;6.00;;
73678;SDS011;61978;52.742;16.962;2023-02-24T08:49:34;18.60;;;6.50;;
73678;SDS011;61978;52.742;16.962;2023-02-24T08:52:00;20.00;;;6.30;;
73678;SDS011;61978;52.742;16.962;2023-02-24T08:54:28;20.10;;;5.90;;
73678;SDS011;61978;52.742;16.962;2023-02-24T08:56:57;19.00;;;6.30;;
73678;SDS011;61978;52.742;16.962;2023-02-24T08:59:35;17.10;;;5.70;;
73678;SDS011;61978;52.742;16.962;2023-02-24T09:02:13;18.00;;;6.60;;
73678;SDS011;61978;52.742;16.962;2023-02-24T09:04:54;44.90;;;17.00;;
73678;SDS011;61978;52.742;16.962;2023-02-24T09:07:31;104.80;;;55.80;;
73678;SDS011;61978;52.742;16.962;2023-02-24T09:10:03;29.20;;;10.30;;
73678;SDS011;61978;52.742;16.962;2023-02-24T09:12:31;108.40;;;57.60;;
73678;SDS011;61978;52.742;16.962;2023-02-24T09:14:58;44.50;;;25.10;;
73678;SDS011;61978;52.742;16.962;2023-02-24T09:17:30;31.80;;;12.10;;
73678;SDS011;61978;52.742;16.962;2023-02-24T09:20:15;24.30;;;8.90;;
73678;SDS011;61978;52.742;16.962;2023-02-24T09:23:00;22.40;;;8.10;;
73678;SDS011;61978;52.742;16.962;2023-02-24T09:25:30;17.70;;;7.00;;
73678;SDS011;61978;52.742;16.962;2023-02-24T09:28:08;28.10;;;15.70;;
73678;SDS011;61978;52.742;16.962;2023-02-24T09:30:46;22.60;;;13.00;;
73678;SDS011;61978;52.742;16.962;2023-02-24T09:33:23;24.70;;;9.00;;
73678;SDS011;61978;52.742;16.962;2023-02-24T09:35:57;22.10;;;10.00;;
73678;SDS011;61978;52.742;16.962;2023-02-24T09:38:38;41.60;;;19.90;;
73678;SDS011;61978;52.742;16.962;2023-02-24T09:44:36;18.60;;;7.00;;
73678;SDS011;61978;52.742;16.962;2023-02-24T09:47:15;16.20;;;6.10;;
73678;SDS011;61978;52.742;16.962;2023-02-24T09:49:56;16.60;;;6.60;;
73678;SDS011;61978;52.742;16.962;2023-02-24T09:58:01;13.70;;;6.60;;
73678;SDS011;61978;52.742;16.962;2023-02-24T10:03:34;13.50;;;5.30;;
73678;SDS011;61978;52.742;16.962;2023-02-24T10:06:12;18.00;;;5.30;;
73678;SDS011;61978;52.742;16.962;2023-02-24T10:08:45;15.20;;;4.50;;
73678;SDS011;61978;52.742;16.962;2023-02-24T10:11:14;15.80;;;4.40;;
73678;SDS011;61978;52.742;16.962;2023-02-24T10:13:51;23.00;;;4.90;;
73678;SDS011;61978;52.742;16.962;2023-02-24T10:16:18;13.80;;;4.80;;
73678;SDS011;61978;52.742;16.962;2023-02-24T10:19:04;16.60;;;4.00;;
73678;SDS011;61978;52.742;16.962;2023-02-24T10:21:51;16.40;;;4.70;;
73678;SDS011;61978;52.742;16.962;2023-02-24T10:26:57;17.50;;;4.00;;
73678;SDS011;61978;52.742;16.962;2023-02-24T10:29:31;16.80;;;3.40;;
73678;SDS011;61978;52.742;16.962;2023-02-24T10:34:51;14.40;;;3.10;;
73678;SDS011;61978;52.742;16.962;2023-02-24T10:37:21;12.20;;;3.20;;
73678;SDS011;61978;52.742;16.962;2023-02-24T10:39:48;13.10;;;3.40;;
73678;SDS011;61978;52.742;16.962;2023-02-24T10:42:25;14.00;;;4.20;;
73678;SDS011;61978;52.742;16.962;2023-02-24T10:45:06;10.10;;;2.70;;
73678;SDS011;61978;52.742;16.962;2023-02-24T10:47:37;13.50;;;3.70;;
73678;SDS011;61978;52.742;16.962;2023-02-24T10:50:20;10.00;;;3.80;;
73678;SDS011;61978;52.742;16.962;2023-02-24T10:52:47;11.10;;;2.00;;
73678;SDS011;61978;52.742;16.962;2023-02-24T10:58:57;13.20;;;3.50;;
73678;SDS011;61978;52.742;16.962;2023-02-24T11:01:18;10.50;;;2.70;;
73678;SDS011;61978;52.742;16.962;2023-02-24T11:04:07;14.20;;;3.90;;
73678;SDS011;61978;52.742;16.962;2023-02-24T11:07:01;19.40;;;7.60;;
73678;SDS011;61978;52.742;16.962;2023-02-24T11:09:34;22.80;;;6.40;;
73678;SDS011;61978;52.742;16.962;2023-02-24T11:12:24;16.30;;;3.10;;
73678;SDS011;61978;52.742;16.962;2023-02-24T11:15:51;11.00;;;3.20;;
73678;SDS011;61978;52.742;16.962;2023-02-24T11:18:17;14.60;;;3.40;;
73678;SDS011;61978;52.742;16.962;2023-02-24T11:20:47;16.90;;;3.70;;
73678;SDS011;61978;52.742;16.962;2023-02-24T11:33:54;7.80;;;2.60;;
73678;SDS011;61978;52.742;16.962;2023-02-24T11:41:31;9.70;;;2.70;;
73678;SDS011;61978;52.742;16.962;2023-02-24T11:44:00;8.70;;;2.10;;
73678;SDS011;61978;52.742;16.962;2023-02-24T11:46:35;20.10;;;7.20;;
73678;SDS011;61978;52.742;16.962;2023-02-24T11:49:03;21.10;;;7.00;;
73678;SDS011;61978;52.742;16.962;2023-02-24T11:51:33;16.60;;;5.40;;
73678;SDS011;61978;52.742;16.962;2023-02-24T11:54:04;12.80;;;3.20;;
73678;SDS011;61978;52.742;16.962;2023-02-24T11:56:33;16.40;;;4.80;;
73678;SDS011;61978;52.742;16.962;2023-02-24T11:59:21;25.00;;;9.40;;
73678;SDS011;61978;52.742;16.962;2023-02-24T12:01:51;17.90;;;7.60;;
73678;SDS011;61978;52.742;16.962;2023-02-24T12:04:30;14.30;;;5.50;;
73678;SDS011;61978;52.742;16.962;2023-02-24T12:09:52;22.10;;;6.00;;
73678;SDS011;61978;52.742;16.962;2023-02-24T12:12:22;4.70;;;1.80;;
73678;SDS011;61978;52.742;16.962;2023-02-24T12:17:30;17.70;;;6.20;;
73678;SDS011;61978;52.742;16.962;2023-02-24T12:22:41;10.40;;;5.10;;
73678;SDS011;61978;52.742;16.962;2023-02-24T12:25:11;15.10;;;7.20;;
73678;SDS011;61978;52.742;16.962;2023-02-24T12:35:35;11.00;;;3.70;;
73678;SDS011;61978;52.742;16.962;2023-02-24T12:41:14;16.50;;;7.80;;
73678;SDS011;61978;52.742;16.962;2023-02-24T12:43:32;14.80;;;7.10;;
73678;SDS011;61978;52.742;16.962;2023-02-24T12:46:02;10.70;;;2.90;;
73678;SDS011;61978;52.742;16.962;2023-02-24T12:54:15;6.50;;;2.80;;
73678;SDS011;61978;52.742;16.962;2023-02-24T12:59:11;10.20;;;4.00;;
73678;SDS011;61978;52.742;16.962;2023-02-24T13:04:21;10.80;;;3.80;;
73678;SDS011;61978;52.742;16.962;2023-02-24T13:09:20;17.70;;;6.30;;
73678;SDS011;61978;52.742;16.962;2023-02-24T13:11:56;10.40;;;2.60;;
73678;SDS011;61978;52.742;16.962;2023-02-24T13:14:28;10.60;;;2.60;;
73678;SDS011;61978;52.742;16.962;2023-02-24T13:19:54;14.10;;;5.30;;
73678;SDS011;61978;52.742;16.962;2023-02-24T13:22:24;22.70;;;5.50;;
73678;SDS011;61978;52.742;16.962;2023-02-24T13:29:52;14.90;;;3.40;;
73678;SDS011;61978;52.742;16.962;2023-02-24T13:32:22;13.30;;;4.90;;
73678;SDS011;61978;52.742;16.962;2023-02-24T13:34:50;8.00;;;1.80;;
73678;SDS011;61978;52.742;16.962;2023-02-24T13:39:55;19.60;;;5.90;;
73678;SDS011;61978;52.742;16.962;2023-02-24T13:42:23;16.00;;;5.80;;
73678;SDS011;61978;52.742;16.962;2023-02-24T13:47:59;9.90;;;3.10;;
73678;SDS011;61978;52.742;16.962;2023-02-24T14:01:19;17.30;;;5.90;;
73678;SDS011;61978;52.742;16.962;2023-02-24T14:06:33;18.40;;;6.10;;
73678;SDS011;61978;52.742;16.962;2023-02-24T14:09:02;14.80;;;4.20;;
73678;SDS011;61978;52.742;16.962;2023-02-24T14:11:34;14.00;;;5.10;;
73678;SDS011;61978;52.742;16.962;2023-02-24T14:14:02;24.70;;;9.90;;
73678;SDS011;61978;52.742;16.962;2023-02-24T14:16:32;14.70;;;6.00;;
73678;SDS011;61978;52.742;16.962;2023-02-24T14:19:05;14.10;;;5.10;;
73678;SDS011;61978;52.742;16.962;2023-02-24T14:21:37;13.60;;;4.40;;
73678;SDS011;61978;52.742;16.962;2023-02-24T14:24:09;12.10;;;4.70;;
73678;SDS011;61978;52.742;16.962;2023-02-24T14:26:57;15.00;;;6.70;;
73678;SDS011;61978;52.742;16.962;2023-02-24T14:29:26;27.70;;;11.70;;
73678;SDS011;61978;52.742;16.962;2023-02-24T14:31:54;7.60;;;2.50;;
73678;SDS011;61978;52.742;16.962;2023-02-24T14:34:22;18.20;;;6.80;;
73678;SDS011;61978;52.742;16.962;2023-02-24T14:36:51;40.90;;;13.30;;
73678;SDS011;61978;52.742;16.962;2023-02-24T14:39:25;29.40;;;10.00;;
73678;SDS011;61978;52.742;16.962;2023-02-24T14:42:03;19.00;;;5.80;;
73678;SDS011;61978;52.742;16.962;2023-02-24T14:44:39;16.00;;;6.40;;
73678;SDS011;61978;52.742;16.962;2023-02-24T14:47:08;15.50;;;5.00;;
73678;SDS011;61978;52.742;16.962;2023-02-24T14:49:35;19.10;;;6.80;;
73678;SDS011;61978;52.742;16.962;2023-02-24T14:54:46;12.00;;;4.60;;
73678;SDS011;61978;52.742;16.962;2023-02-24T14:57:15;23.50;;;8.50;;
73678;SDS011;61978;52.742;16.962;2023-02-24T14:59:44;11.60;;;3.90;;
73678;SDS011;61978;52.742;16.962;2023-02-24T15:02:16;14.70;;;7.10;;
73678;SDS011;61978;52.742;16.962;2023-02-24T15:04:48;13.10;;;6.70;;
73678;SDS011;61978;52.742;16.962;2023-02-24T15:07:32;9.30;;;4.50;;
73678;SDS011;61978;52.742;16.962;2023-02-24T15:09:59;6.90;;;2.40;;
73678;SDS011;61978;52.742;16.962;2023-02-24T15:12:35;7.50;;;3.10;;
73678;SDS011;61978;52.742;16.962;2023-02-24T15:15:29;12.30;;;4.10;;
73678;SDS011;61978;52.742;16.962;2023-02-24T15:17:57;14.70;;;4.00;;
73678;SDS011;61978;52.742;16.962;2023-02-24T15:20:45;7.60;;;3.30;;
73678;SDS011;61978;52.742;16.962;2023-02-24T15:23:25;9.30;;;3.10;;
73678;SDS011;61978;52.742;16.962;2023-02-24T15:25:52;13.70;;;4.10;;
73678;SDS011;61978;52.742;16.962;2023-02-24T15:28:23;14.30;;;3.90;;
73678;SDS011;61978;52.742;16.962;2023-02-24T15:33:54;6.70;;;3.00;;
73678;SDS011;61978;52.742;16.962;2023-02-24T15:36:23;8.00;;;4.30;;
73678;SDS011;61978;52.742;16.962;2023-02-24T15:38:56;9.30;;;3.80;;
73678;SDS011;61978;52.742;16.962;2023-02-24T15:41:24;18.30;;;7.60;;
73678;SDS011;61978;52.742;16.962;2023-02-24T15:43:51;17.90;;;8.40;;
73678;SDS011;61978;52.742;16.962;2023-02-24T15:48:47;28.60;;;11.50;;
73678;SDS011;61978;52.742;16.962;2023-02-24T15:53:48;17.50;;;7.70;;
73678;SDS011;61978;52.742;16.962;2023-02-24T15:56:14;11.80;;;4.50;;
73678;SDS011;61978;52.742;16.962;2023-02-24T15:58:42;14.50;;;5.50;;
73678;SDS011;61978;52.742;16.962;2023-02-24T16:01:09;9.50;;;4.10;;
73678;SDS011;61978;52.742;16.962;2023-02-24T16:03:36;13.80;;;6.40;;
73678;SDS011;61978;52.742;16.962;2023-02-24T16:06:11;14.10;;;5.70;;
73678;SDS011;61978;52.742;16.962;2023-02-24T16:08:40;36.50;;;13.20;;
73678;SDS011;61978;52.742;16.962;2023-02-24T16:11:10;45.90;;;18.10;;
73678;SDS011;61978;52.742;16.962;2023-02-24T16:13:36;34.90;;;12.40;;
73678;SDS011;61978;52.742;16.962;2023-02-24T16:16:04;13.00;;;4.20;;
73678;SDS011;61978;52.742;16.962;2023-02-24T16:18:31;31.60;;;7.80;;
73678;SDS011;61978;52.742;16.962;2023-02-24T16:20:57;28.50;;;9.10;;
73678;SDS011;61978;52.742;16.962;2023-02-24T16:23:24;70.40;;;20.20;;
73678;SDS011;61978;52.742;16.962;2023-02-24T16:25:54;48.80;;;16.50;;
73678;SDS011;61978;52.742;16.962;2023-02-24T16:28:22;36.70;;;12.20;;
73678;SDS011;61978;52.742;16.962;2023-02-24T16:30:48;62.60;;;21.20;;
73678;SDS011;61978;52.742;16.962;2023-02-24T16:33:15;30.60;;;10.00;;
73678;SDS011;61978;52.742;16.962;2023-02-24T16:35:42;28.40;;;10.20;;
73678;SDS011;61978;52.742;16.962;2023-02-24T16:38:12;21.10;;;8.40;;
73678;SDS011;61978;52.742;16.962;2023-02-24T16:40:40;18.30;;;6.40;;
73678;SDS011;61978;52.742;16.962;2023-02-24T16:43:06;21.90;;;9.70;;
73678;SDS011;61978;52.742;16.962;2023-02-24T16:45:32;23.20;;;9.40;;
73678;SDS011;61978;52.742;16.962;2023-02-24T16:48:04;25.70;;;9.80;;
73678;SDS011;61978;52.742;16.962;2023-02-24T16:52:58;16.30;;;7.00;;
73678;SDS011;61978;52.742;16.962;2023-02-24T16:55:23;70.70;;;29.70;;
73678;SDS011;61978;52.742;16.962;2023-02-24T16:57:50;71.70;;;43.20;;
73678;SDS011;61978;52.742;16.962;2023-02-24T17:00:16;28.50;;;13.40;;